Time;durP1;ratioP1;P1;durP2;ratioP2;P2;SDS_P1;SDS_P2;PMS_P1;PMS_P2;Temp;Humidity;BMP_temperature;BMP_pressure;BME280_temperature;BME280_humidity;BME280_pressure;Samples;Min_cycle;Max_cycle;Signal;HPM_P1;HPM_P2
2021/06/26 00:02:20;;;;;;;;;12.67;12.00;;;;;35.40;26.08;100668.81;144155;639;132020;-69
2021/06/26 00:04:51;;;;;;;;;14.00;14.00;;;;;35.37;26.06;100673.16;144169;578;132008;-68
2021/06/26 00:07:21;;;;;;;;;11.33;10.67;;;;;35.32;26.20;100676.25;144162;564;132012;-73
2021/06/26 00:09:53;;;;;;;;;12.33;11.00;;;;;35.23;26.08;100667.13;144169;681;132010;-74
2021/06/26 00:12:24;;;;;;;;;12.00;12.00;;;;;35.19;26.37;100672.66;144157;574;132019;-73
2021/06/26 00:14:54;;;;;;;;;11.00;11.00;;;;;35.09;26.45;100668.38;144161;627;132010;-73
2021/06/26 00:17:24;;;;;;;;;13.00;12.33;;;;;35.03;26.97;100672.59;144157;587;132010;-76
2021/06/26 00:19:54;;;;;;;;;9.67;9.67;;;;;34.93;27.29;100668.25;144175;564;132008;-71
2021/06/26 00:22:24;;;;;;;;;13.67;13.00;;;;;34.85;27.91;100658.81;144150;571;132907;-72
2021/06/26 00:24:54;;;;;;;;;12.33;10.67;;;;;34.82;27.71;100659.53;144171;598;132010;-71
2021/06/26 00:27:24;;;;;;;;;15.33;12.33;;;;;34.80;28.00;100655.41;144151;652;132038;-76
2021/06/26 00:29:54;;;;;;;;;13.67;12.33;;;;;34.78;28.63;100661.38;144173;585;132006;-75
2021/06/26 00:32:24;;;;;;;;;15.00;12.33;;;;;34.74;28.41;100654.84;144169;586;133014;-72
2021/06/26 00:34:55;;;;;;;;;15.00;13.33;;;;;34.69;28.57;100647.47;144167;589;132008;-72
2021/06/26 00:37:25;;;;;;;;;9.67;9.00;;;;;34.66;28.61;100644.56;144146;593;132012;-75
2021/06/26 00:39:55;;;;;;;;;10.00;10.00;;;;;34.68;28.55;100648.66;144157;566;131021;-76
2021/06/26 00:42:25;;;;;;;;;14.67;14.00;;;;;34.65;28.89;100643.75;144153;575;132010;-77
2021/06/26 00:44:55;;;;;;;;;17.00;14.00;;;;;34.62;28.96;100643.63;144168;631;132020;-80
2021/06/26 00:47:26;;;;;;;;;15.67;14.00;;;;;34.62;28.67;100647.28;144149;601;132010;-83
2021/06/26 00:49:58;;;;;;;;;12.33;12.00;;;;;34.62;28.91;100643.63;144169;590;132006;-87
2021/06/26 00:52:37;;;;;;;;;11.00;9.67;;;;;34.61;28.69;100644.81;144155;569;131907;-88
2021/06/26 00:55:09;;;;;;;;;16.00;15.33;;;;;34.58;29.01;100647.16;144166;664;132010;-89
2021/06/26 00:57:47;;;;;;;;;13.33;12.00;;;;;34.58;28.97;100644.34;144165;594;132020;-78
2021/06/26 01:00:18;;;;;;;;;16.33;14.67;;;;;34.62;28.80;100640.81;144167;571;132010;-87
2021/06/26 01:02:48;;;;;;;;;14.67;13.67;;;;;34.65;28.78;100642.91;144151;613;132011;-85
2021/06/26 01:05:18;;;;;;;;;14.67;12.67;;;;;34.64;28.65;100632.84;144151;625;133020;-78
2021/06/26 01:07:49;;;;;;;;;16.67;14.33;;;;;34.55;28.55;100636.63;144156;575;132010;-84
2021/06/26 01:10:19;;;;;;;;;15.33;13.00;;;;;34.53;28.71;100629.72;144169;615;131021;-75
2021/06/26 01:12:50;;;;;;;;;15.33;15.00;;;;;34.55;28.43;100628.22;144149;596;132018;-74
2021/06/26 01:15:20;;;;;;;;;13.33;12.67;;;;;34.53;28.46;100624.09;144168;577;132010;-77
2021/06/26 01:17:50;;;;;;;;;15.00;12.67;;;;;34.57;28.51;100631.47;144153;618;132018;-78
2021/06/26 01:20:21;;;;;;;;;11.33;10.67;;;;;34.55;27.98;100633.81;144170;626;132010;-76
2021/06/26 01:22:55;;;;;;;;;8.67;6.67;;;;;34.49;28.08;100629.56;144176;572;132020;-75
2021/06/26 01:25:30;;;;;;;;;11.00;9.67;;;;;34.43;28.35;100633.81;144170;581;131021;-71
2021/06/26 01:28:00;;;;;;;;;8.33;7.67;;;;;34.45;27.86;100634.25;144155;565;132018;-83
2021/06/26 01:30:34;;;;;;;;;11.00;11.00;;;;;34.41;28.16;100636.94;144153;563;132010;-72
2021/06/26 01:33:05;;;;;;;;;6.33;5.67;;;;;34.43;28.03;100640.25;144160;632;132907;-76
2021/06/26 01:35:35;;;;;;;;;8.00;8.00;;;;;34.42;28.14;100641.41;144175;584;131020;-78
2021/06/26 01:38:05;;;;;;;;;11.67;10.33;;;;;34.41;27.91;100638.94;144154;609;132010;-79
2021/06/26 01:40:35;;;;;;;;;14.33;12.33;;;;;34.40;27.77;100643.72;144171;603;131021;-76
2021/06/26 01:43:05;;;;;;;;;12.33;11.67;;;;;34.37;27.56;100638.84;144155;586;133012;-84
2021/06/26 01:45:36;;;;;;;;;14.00;12.00;;;;;34.35;27.83;100629.94;144167;578;132008;-80
2021/06/26 01:48:06;;;;;;;;;10.00;10.00;;;;;34.27;27.67;100631.72;144161;566;132907;-76
2021/06/26 01:50:39;;;;;;;;;12.33;11.33;;;;;34.17;28.36;100629.38;144175;564;132008;-78
2021/06/26 01:53:10;;;;;;;;;11.00;11.00;;;;;34.12;28.11;100635.22;144161;577;132013;-74
2021/06/26 01:55:40;;;;;;;;;10.00;9.00;;;;;34.13;28.43;100634.06;144155;597;131021;-75
2021/06/26 01:58:10;;;;;;;;;12.00;12.00;;;;;34.09;28.09;100638.72;144149;569;132012;-76
2021/06/26 02:00:40;;;;;;;;;11.67;10.67;;;;;34.09;28.05;100638.72;144166;656;132011;-79
2021/06/26 02:03:10;;;;;;;;;12.00;9.67;;;;;34.12;28.23;100630.41;144149;580;132907;-78
2021/06/26 02:05:40;;;;;;;;;14.00;12.00;;;;;34.10;28.14;100643.19;144168;665;132008;-75
2021/06/26 02:08:11;;;;;;;;;12.00;11.33;;;;;34.07;28.29;100638.28;144156;664;132018;-78
2021/06/26 02:10:46;;;;;;;;;11.00;11.00;;;;;34.03;28.24;100628.88;144172;612;132008;-74
2021/06/26 02:13:16;;;;;;;;;13.00;12.67;;;;;33.96;28.56;100635.06;144160;613;132018;-77
2021/06/26 02:15:46;;;;;;;;;8.67;8.67;;;;;33.92;28.38;100631.31;144169;570;132008;-76
2021/06/26 02:18:16;;;;;;;;;11.00;9.00;;;;;33.91;28.62;100632.47;144162;600;131016;-76
2021/06/26 02:20:46;;;;;;;;;13.33;12.00;;;;;33.94;28.53;100632.63;144164;599;131020;-78
2021/06/26 02:23:16;;;;;;;;;9.67;9.33;;;;;33.92;28.71;100634.94;144152;597;132008;-77
2021/06/26 02:25:46;;;;;;;;;15.67;12.67;;;;;33.92;28.71;100640.56;144167;594;132008;-78
2021/06/26 02:28:16;;;;;;;;;11.67;11.00;;;;;33.85;28.61;100635.53;144146;588;132905;-77
2021/06/26 02:30:46;;;;;;;;;10.00;10.00;;;;;33.81;28.86;100634.56;144169;581;132010;-79
2021/06/26 02:33:16;;;;;;;;;13.00;12.00;;;;;33.80;28.69;100637.75;144152;571;132010;-76
2021/06/26 02:35:46;;;;;;;;;12.67;10.00;;;;;33.83;28.73;100642.66;144167;573;132010;-73
2021/06/26 02:38:16;;;;;;;;;13.67;11.00;;;;;33.53;29.18;100642.81;144160;575;132008;-75
2021/06/26 02:40:47;;;;;;;;;6.67;6.67;;;;;33.62;28.87;100632.34;144180;572;132010;-84
2021/06/26 02:43:19;;;;;;;;;15.67;13.00;;;;;33.73;28.94;100641.13;144154;563;132020;-72
2021/06/26 02:45:49;;;;;;;;;14.67;13.67;;;;;33.73;28.44;100632.69;144148;656;132009;-70
2021/06/26 02:48:19;;;;;;;;;10.33;9.00;;;;;33.68;28.59;100630.94;144156;635;131904;-72
2021/06/26 02:50:49;;;;;;;;;7.67;5.33;;;;;33.66;28.39;100635.25;144174;599;132010;-70
2021/06/26 02:53:20;;;;;;;;;10.67;10.00;;;;;33.66;28.58;100636.06;144157;596;131905;-73
2021/06/26 02:55:55;;;;;;;;;11.67;9.00;;;;;33.65;28.69;100631.62;144174;572;132010;-74
2021/06/26 02:58:25;;;;;;;;;8.00;8.00;;;;;33.66;28.85;100638.88;144157;579;132012;-71
2021/06/26 03:00:55;;;;;;;;;12.00;8.67;;;;;33.68;28.82;100635.72;144172;609;132008;-72
2021/06/26 03:03:26;;;;;;;;;5.67;5.67;;;;;33.70;28.79;100634.19;144178;702;131019;-69
2021/06/26 03:05:56;;;;;;;;;12.33;10.67;;;;;33.76;29.01;100645.19;144176;569;131020;-73
2021/06/26 03:08:26;;;;;;;;;14.00;11.67;;;;;33.84;29.19;100652.69;144157;630;132905;-73
2021/06/26 03:10:56;;;;;;;;;13.00;13.00;;;;;33.90;29.40;100659.69;144154;596;131020;-70
2021/06/26 03:13:26;;;;;;;;;1.00;0.00;;;;;33.91;28.75;100652.94;144158;642;132012;-72
2021/06/26 03:15:56;;;;;;;;;13.67;12.00;;;;;33.86;28.68;100650.34;144177;594;132008;-72
2021/06/26 03:18:27;;;;;;;;;10.33;9.00;;;;;33.84;28.53;100655.50;144158;565;131016;-75
2021/06/26 03:20:57;;;;;;;;;8.00;8.00;;;;;33.83;28.43;100660.28;144181;571;131020;-72
2021/06/26 03:23:27;;;;;;;;;12.00;10.00;;;;;33.86;28.79;100661.56;144149;613;132026;-72
2021/06/26 03:25:57;;;;;;;;;13.67;12.00;;;;;33.88;28.65;100660.06;144173;569;133010;-72
2021/06/26 03:28:27;;;;;;;;;15.00;12.33;;;;;33.89;28.38;100660.87;144171;569;132010;-74
2021/06/26 03:30:57;;;;;;;;;7.00;7.00;;;;;33.90;28.16;100664.50;144178;581;132006;-71
2021/06/26 03:33:28;;;;;;;;;16.00;11.33;;;;;33.86;27.87;100664.37;144153;573;132010;-78
2021/06/26 03:35:58;;;;;;;;;11.00;11.00;;;;;33.88;28.07;100656.44;144157;586;132010;-76
2021/06/26 03:38:28;;;;;;;;;11.33;11.33;;;;;33.92;28.11;100657.41;144153;601;132014;-82
2021/06/26 03:40:58;;;;;;;;;12.33;10.67;;;;;33.62;28.72;100659.53;144177;601;131021;-80
2021/06/26 03:43:28;;;;;;;;;11.67;10.33;;;;;33.62;28.84;100674.37;144160;569;132020;-73
2021/06/26 03:45:58;;;;;;;;;0.00;0.00;;;;;33.60;28.56;100671.09;144180;602;132010;-76
2021/06/26 03:48:28;;;;;;;;;12.00;10.00;;;;;33.57;28.95;100663.38;144148;565;132907;-80
2021/06/26 03:50:59;;;;;;;;;13.67;13.00;;;;;33.51;29.43;100673.97;144173;581;132020;-68
2021/06/26 03:53:29;;;;;;;;;7.00;7.00;;;;;33.49;29.26;100673.50;144170;599;132010;-68
2021/06/26 03:56:00;;;;;;;;;12.67;11.00;;;;;33.70;29.00;100667.84;144173;583;132010;-71
2021/06/26 03:58:30;;;;;;;;;10.33;10.33;;;;;33.72;28.99;100668.31;144149;623;132012;-71
2021/06/26 04:01:00;;;;;;;;;12.00;9.33;;;;;33.68;29.17;100667.37;144157;569;132010;-70
2021/06/26 04:03:31;;;;;;;;;10.67;10.00;;;;;33.68;29.18;100670.19;144161;616;132010;-70
2021/06/26 04:06:01;;;;;;;;;10.00;8.33;;;;;33.68;29.49;100664.56;144181;590;131020;-68
2021/06/26 04:08:31;;;;;;;;;9.33;8.67;;;;;33.62;29.67;100670.75;144153;625;133010;-69
2021/06/26 04:11:01;;;;;;;;;11.67;10.33;;;;;33.47;30.07;100675.00;144173;632;132008;-70
2021/06/26 04:13:31;;;;;;;;;13.67;11.33;;;;;33.55;30.10;100676.91;144152;635;132012;-69
2021/06/26 04:16:04;;;;;;;;;11.00;9.67;;;;;33.60;30.26;100682.31;144167;629;132008;-71
2021/06/26 04:18:34;;;;;;;;;12.33;11.33;;;;;33.69;30.24;100677.44;144166;584;132904;-71
2021/06/26 04:21:04;;;;;;;;;9.00;9.00;;;;;33.79;30.39;100678.16;144176;584;131020;-70
2021/06/26 04:23:34;;;;;;;;;18.00;15.00;;;;;33.86;30.19;100687.66;144154;596;131905;-68
2021/06/26 04:26:04;;;;;;;;;10.00;10.00;;;;;34.21;29.93;100691.22;144159;570;131020;-70
2021/06/26 04:28:35;;;;;;;;;13.00;11.33;;;;;34.38;30.27;100690.19;144156;590;132010;-70
2021/06/26 04:31:05;;;;;;;;;14.00;13.00;;;;;34.47;30.35;100685.25;144170;641;131021;-71
2021/06/26 04:33:35;;;;;;;;;10.33;10.00;;;;;34.60;30.50;100685.28;144155;664;132904;-68
2021/06/26 04:36:11;;;;;;;;;13.33;12.33;;;;;34.67;29.95;100686.31;144175;585;132008;-71
2021/06/26 04:38:42;;;;;;;;;14.33;12.00;;;;;34.73;29.77;100689.72;144145;564;132905;-71
2021/06/26 04:41:13;;;;;;;;;16.67;15.00;;;;;34.75;29.42;100693.00;144176;610;131022;-72
2021/06/26 04:43:43;;;;;;;;;10.67;9.67;;;;;34.78;29.61;100686.66;144169;626;132018;-70
2021/06/26 04:46:13;;;;;;;;;13.67;13.00;;;;;34.82;29.05;100687.59;144170;594;132008;-75
2021/06/26 04:48:43;;;;;;;;;11.00;11.00;;;;;34.95;29.32;100684.78;144149;639;132012;-76
2021/06/26 04:51:13;;;;;;;;;14.67;13.67;;;;;35.09;28.50;100688.03;144160;588;132008;-79
2021/06/26 04:53:43;;;;;;;;;10.67;10.00;;;;;35.27;28.93;100685.75;144154;624;132022;-74
2021/06/26 04:56:14;;;;;;;;;12.33;12.33;;;;;35.44;28.90;100692.22;144172;624;132006;-72
2021/06/26 04:58:44;;;;;;;;;10.33;9.67;;;;;35.64;28.84;100693.22;144154;565;132010;-71
2021/06/26 05:01:14;;;;;;;;;10.67;9.33;;;;;35.84;28.65;100702.59;144174;619;131998;-71
2021/06/26 05:03:44;;;;;;;;;13.67;12.00;;;;;36.02;27.92;100705.06;144155;613;132010;-75
2021/06/26 05:06:16;;;;;;;;;15.33;14.33;;;;;36.18;27.98;100698.66;144175;598;132008;-74
2021/06/26 05:08:46;;;;;;;;;15.00;14.00;;;;;36.37;27.53;100700.72;144165;599;131020;-73
2021/06/26 05:11:16;;;;;;;;;18.33;16.67;;;;;36.53;27.31;100700.72;144167;630;132006;-77
2021/06/26 05:13:47;;;;;;;;;20.33;16.33;;;;;36.61;26.35;100699.72;144148;683;132905;-73
2021/06/26 05:16:17;;;;;;;;;17.00;16.00;;;;;36.73;26.28;100707.25;144155;590;132008;-73
2021/06/26 05:18:47;;;;;;;;;18.00;15.67;;;;;36.78;25.65;100706.12;144147;599;132010;-73
2021/06/26 05:21:19;;;;;;;;;16.33;15.33;;;;;36.87;25.58;100705.94;144177;577;132008;-71
2021/06/26 05:23:49;;;;;;;;;21.33;19.67;;;;;36.99;26.25;100702.19;144162;582;132905;-72
2021/06/26 05:26:19;;;;;;;;;18.33;18.00;;;;;37.09;25.47;100702.44;144175;576;132008;-76
2021/06/26 05:28:49;;;;;;;;;15.00;14.00;;;;;37.19;24.90;100697.41;144149;606;133010;-73
2021/06/26 05:31:20;;;;;;;;;20.00;17.33;;;;;37.23;25.56;100703.94;144172;582;132024;-77
2021/06/26 05:33:50;;;;;;;;;21.67;19.00;;;;;37.29;25.25;100704.44;144163;596;133018;-83
2021/06/26 05:36:20;;;;;;;;;19.33;19.00;;;;;37.41;25.34;100689.38;144171;591;132010;-76
2021/06/26 05:38:50;;;;;;;;;20.67;20.00;;;;;37.58;25.58;100705.06;144154;590;132010;-78
2021/06/26 05:41:20;;;;;;;;;23.33;20.33;;;;;37.70;25.95;100696.44;144153;565;132010;-83
2021/06/26 05:43:50;;;;;;;;;20.67;19.33;;;;;37.81;25.35;100702.25;144147;591;132012;-78
2021/06/26 05:46:21;;;;;;;;;20.00;19.67;;;;;37.93;25.80;100707.72;144166;603;132008;-77
2021/06/26 05:48:51;;;;;;;;;19.33;19.00;;;;;38.00;25.10;100706.25;144151;619;132012;-85
2021/06/26 05:51:21;;;;;;;;;23.33;20.00;;;;;38.08;25.55;100710.84;144169;610;132008;-78
2021/06/26 05:53:51;;;;;;;;;18.33;18.33;;;;;38.16;24.87;100706.12;144157;598;133013;-77
2021/06/26 05:56:21;;;;;;;;;17.00;14.67;;;;;38.24;25.50;100705.03;144168;656;132008;-79
2021/06/26 05:58:52;;;;;;;;;19.33;18.33;;;;;38.33;24.60;100710.41;144161;570;131905;-82
2021/06/26 06:01:24;;;;;;;;;19.67;16.67;;;;;38.42;24.64;100710.97;144170;609;131021;-79
2021/06/26 06:03:57;;;;;;;;;18.00;17.33;;;;;38.57;25.91;100708.41;144154;578;132018;-81
2021/06/26 06:06:27;;;;;;;;;20.00;18.67;;;;;38.62;24.79;100711.72;144153;564;132010;-83
2021/06/26 06:08:57;;;;;;;;;18.00;16.33;;;;;38.76;24.80;100707.47;144155;574;132010;-86
2021/06/26 06:11:27;;;;;;;;;14.33;14.33;;;;;38.81;24.29;100717.63;144172;594;132008;-87
2021/06/26 06:13:57;;;;;;;;;13.33;13.33;;;;;38.89;24.21;100716.53;144154;583;132031;-87
2021/06/26 06:16:28;;;;;;;;;14.00;13.00;;;;;39.02;24.47;100709.47;144169;570;131021;-82
2021/06/26 06:18:58;;;;;;;;;9.00;9.00;;;;;39.08;23.39;100697.84;144152;570;132012;-78
2021/06/26 06:21:28;;;;;;;;;17.67;16.00;;;;;39.10;23.93;100696.25;144176;656;131021;-77
2021/06/26 06:23:58;;;;;;;;;19.00;16.33;;;;;39.13;23.81;100695.47;144164;564;132028;-71
2021/06/26 06:26:28;;;;;;;;;17.67;17.00;;;;;39.21;24.09;100693.53;144168;671;132008;-79
2021/06/26 06:28:58;;;;;;;;;16.33;15.00;;;;;39.26;23.71;100686.72;144154;577;132010;-81
2021/06/26 06:31:28;;;;;;;;;18.33;15.67;;;;;39.12;24.08;100684.56;144160;624;132008;-88
2021/06/26 06:33:59;;;;;;;;;18.33;15.33;;;;;39.22;23.80;100681.03;144156;563;132905;-79
2021/06/26 06:36:30;;;;;;;;;14.00;13.33;;;;;39.24;23.43;100681.47;144174;571;132008;-88
2021/06/26 06:39:00;;;;;;;;;18.00;16.67;;;;;39.39;23.68;100679.66;144152;574;131905;-84
2021/06/26 06:41:31;;;;;;;;;16.00;15.33;;;;;39.56;24.17;100683.88;144172;590;132008;-88
2021/06/26 06:44:01;;;;;;;;;17.00;16.33;;;;;39.61;23.36;100677.06;144152;596;132019;-88
2021/06/26 06:46:31;;;;;;;;;15.00;14.33;;;;;39.91;23.15;100670.50;144171;575;132010;-91
2021/06/26 06:49:01;;;;;;;;;18.00;14.67;;;;;40.06;23.28;100665.75;144168;601;132020;-89
2021/06/26 06:51:31;;;;;;;;;13.67;13.00;;;;;40.18;23.62;100676.78;144177;584;132010;-87
2021/06/26 06:54:02;;;;;;;;;14.00;13.67;;;;;40.28;23.21;100663.09;144157;618;132905;-88
2021/06/26 06:56:32;;;;;;;;;14.33;13.67;;;;;40.37;22.98;100674.91;144159;591;131020;-90
2021/06/26 06:59:02;;;;;;;;;12.00;11.00;;;;;40.49;22.63;100665.28;144151;598;131905;-90
2021/06/26 07:01:32;;;;;;;;;10.00;10.00;;;;;40.63;22.08;100660.91;144173;588;132008;-86
2021/06/26 07:04:03;;;;;;;;;6.33;6.00;;;;;40.75;18.54;100655.75;144167;582;132010;-90
2021/06/26 07:06:33;;;;;;;;;9.33;7.33;;;;;40.88;18.19;100659.03;144179;599;132010;-80
2021/06/26 07:09:03;;;;;;;;;4.00;4.00;;;;;41.05;17.29;100655.88;144156;585;132010;-91
2021/06/26 07:11:33;;;;;;;;;4.00;4.00;;;;;41.34;16.72;100656.78;144184;599;131010;-78
2021/06/26 07:14:04;;;;;;;;;5.00;4.33;;;;;41.52;16.94;100650.34;144176;680;132010;-87
2021/06/26 07:16:34;;;;;;;;;6.67;6.67;;;;;41.59;15.92;100645.50;144191;579;131020;-91
2021/06/26 07:19:04;;;;;;;;;6.67;6.33;;;;;41.73;15.30;100644.72;144165;625;132905;-92
2021/06/26 07:21:34;;;;;;;;;4.33;4.33;;;;;41.85;15.24;100648.38;144166;623;131021;-89
2021/06/26 07:24:05;;;;;;;;;5.33;5.33;;;;;41.86;14.31;100645.12;144157;617;132012;-84
2021/06/26 07:26:36;;;;;;;;;6.67;5.67;;;;;41.90;14.44;100650.81;144177;581;132010;-79
2021/06/26 07:29:06;;;;;;;;;5.00;5.00;;;;;41.94;15.07;100642.28;144157;575;132010;-86
2021/06/26 07:31:37;;;;;;;;;8.67;7.67;;;;;41.84;14.76;100650.37;144183;606;131021;-84
2021/06/26 07:34:07;;;;;;;;;4.33;4.33;;;;;41.87;14.39;100649.56;144163;563;132012;-85
2021/06/26 07:36:37;;;;;;;;;4.67;4.67;;;;;41.85;14.72;100646.34;144179;630;132009;-84
2021/06/26 07:39:08;;;;;;;;;8.67;7.67;;;;;41.83;14.39;100647.97;144171;622;131905;-86
2021/06/26 07:41:38;;;;;;;;;8.33;8.00;;;;;41.83;13.96;100653.66;144182;584;132010;-84
2021/06/26 07:44:08;;;;;;;;;5.00;4.00;;;;;41.67;14.31;100645.53;144159;593;132012;-86
2021/06/26 07:46:39;;;;;;;;;11.67;10.33;;;;;41.66;14.07;100644.72;144163;633;131020;-86
2021/06/26 07:49:09;;;;;;;;;5.33;5.00;;;;;41.69;13.77;100649.59;144157;582;134018;-85
2021/06/26 07:51:40;;;;;;;;;5.00;5.00;;;;;41.77;13.83;100639.03;144181;679;131021;-86
2021/06/26 07:54:10;;;;;;;;;4.67;4.00;;;;;42.25;14.31;100643.50;144164;580;131905;-83
2021/06/26 07:56:40;;;;;;;;;4.00;4.00;;;;;42.48;13.81;100638.62;144175;614;132008;-84
2021/06/26 07:59:11;;;;;;;;;5.67;5.67;;;;;42.64;13.61;100638.16;144165;569;132026;-84
2021/06/26 08:01:42;;;;;;;;;7.00;6.00;;;;;42.67;14.79;100637.31;144177;756;132010;-83
2021/06/26 08:04:12;;;;;;;;;10.33;9.00;;;;;42.69;16.90;100644.22;144169;590;131998;-85
2021/06/26 08:06:42;;;;;;;;;6.67;5.00;;;;;42.68;14.35;100641.78;144180;575;132009;-82
2021/06/26 08:09:12;;;;;;;;;7.67;6.67;;;;;42.73;15.95;100638.53;144166;569;132010;-82
2021/06/26 08:11:43;;;;;;;;;12.00;11.00;;;;;42.59;18.30;100647.09;144160;586;132006;-82
2021/06/26 08:14:13;;;;;;;;;12.00;11.00;;;;;42.48;18.83;100635.78;144158;577;131021;-83
2021/06/26 08:16:43;;;;;;;;;13.67;10.67;;;;;42.19;18.57;100636.59;144168;605;132010;-83
2021/06/26 08:19:13;;;;;;;;;13.33;13.33;;;;;42.11;19.93;100630.13;144152;570;132010;-81
2021/06/26 08:21:46;;;;;;;;;12.33;12.33;;;;;42.04;20.67;100638.66;144167;589;132010;-82
2021/06/26 08:24:16;;;;;;;;;9.00;9.00;;;;;42.13;20.22;100630.53;144151;576;133018;-81
2021/06/26 08:26:46;;;;;;;;;13.00;11.67;;;;;42.06;19.50;100641.09;144173;571;132006;-83
2021/06/26 08:29:16;;;;;;;;;11.67;11.67;;;;;41.95;20.71;100635.38;144160;658;132905;-81
2021/06/26 08:31:46;;;;;;;;;12.00;11.67;;;;;41.94;19.59;100637.41;144172;579;132008;-82
2021/06/26 08:34:22;;;;;;;;;7.33;7.00;;;;;41.96;19.40;100634.16;144160;667;131905;-83
2021/06/26 08:36:52;;;;;;;;;7.33;5.00;;;;;42.11;18.82;100629.34;144162;574;132018;-81
2021/06/26 08:39:23;;;;;;;;;9.00;7.33;;;;;42.31;18.60;100623.19;144156;565;132010;-82
2021/06/26 08:41:53;;;;;;;;;9.33;8.33;;;;;42.38;18.59;100638.19;144184;684;131020;-88
2021/06/26 08:44:23;;;;;;;;;11.00;9.33;;;;;42.42;19.58;100621.94;144148;571;132010;-84
2021/06/26 08:46:53;;;;;;;;;7.33;7.33;;;;;42.52;20.07;100619.53;144179;680;132010;-84
2021/06/26 08:49:24;;;;;;;;;12.67;10.67;;;;;42.64;20.23;100619.06;144156;577;132010;-83
2021/06/26 08:51:54;;;;;;;;;10.33;10.33;;;;;42.50;20.81;100607.75;144173;590;131021;-81
2021/06/26 08:54:25;;;;;;;;;16.67;14.33;;;;;42.41;21.01;100619.53;144165;650;132012;-92
2021/06/26 08:56:56;;;;;;;;;12.00;11.33;;;;;42.39;21.30;100622.78;144172;633;131021;-83
2021/06/26 08:59:26;;;;;;;;;13.00;10.33;;;;;42.39;20.60;100617.09;144152;569;132012;-86
2021/06/26 09:01:56;;;;;;;;;10.00;9.33;;;;;42.50;20.47;100602.06;144158;579;131020;-82
2021/06/26 09:04:27;;;;;;;;;16.67;16.67;;;;;42.56;19.87;100606.09;144158;561;132013;-82
2021/06/26 09:06:59;;;;;;;;;14.33;13.33;;;;;42.80;18.97;100612.09;144178;647;131021;-79
2021/06/26 09:09:36;;;;;;;;;9.00;9.00;;;;;42.99;18.05;100607.97;144154;615;132020;-87
2021/06/26 09:12:12;;;;;;;;;12.00;11.67;;;;;43.16;18.58;100603.37;144174;689;131021;-85
2021/06/26 09:14:44;;;;;;;;;12.67;10.67;;;;;43.19;18.38;100599.69;144154;575;132031;-86
2021/06/26 09:17:18;;;;;;;;;11.00;10.00;;;;;43.19;17.89;100596.06;144173;620;131047;-82
2021/06/26 09:20:03;;;;;;;;;11.67;10.33;;;;;42.99;17.50;100591.72;144165;579;132010;-81
2021/06/26 09:22:41;;;;;;;;;10.33;10.33;;;;;43.29;17.88;100595.19;144171;572;131021;-80
2021/06/26 09:25:35;;;;;;;;;7.00;5.67;;;;;43.44;17.16;100584.53;144162;563;131027;-82
2021/06/26 09:28:09;;;;;;;;;8.00;7.67;;;;;43.43;16.82;100585.75;144163;588;132008;-90
2021/06/26 09:30:44;;;;;;;;;9.00;7.00;;;;;43.39;16.97;100584.97;144165;644;132020;-83
2021/06/26 09:33:19;;;;;;;;;6.00;6.00;;;;;43.25;17.90;100583.00;144175;619;132010;-82
2021/06/26 09:36:07;;;;;;;;;8.67;8.00;;;;;43.37;17.33;100587.44;144155;718;132905;-90
2021/06/26 09:39:00;;;;;;;;;9.67;9.67;;;;;43.46;18.25;100584.91;144179;581;132006;-83
2021/06/26 09:41:31;;;;;;;;;14.00;11.33;;;;;43.54;17.38;100585.66;144160;594;132010;-88
2021/06/26 09:44:11;;;;;;;;;16.33;12.00;;;;;43.61;17.50;100579.94;144168;599;132006;-90
2021/06/26 09:46:46;;;;;;;;;11.33;11.00;;;;;43.78;17.03;100580.22;144165;580;132905;-80
2021/06/26 09:49:30;;;;;;;;;11.67;10.67;;;;;44.08;17.15;100579.47;144179;610;131020;-83
2021/06/26 09:52:02;;;;;;;;;13.67;13.67;;;;;44.36;15.72;100586.13;144154;564;132010;-81
2021/06/26 09:54:32;;;;;;;;;10.00;9.33;;;;;44.44;16.46;100592.56;144160;618;132008;-81
2021/06/26 09:57:03;;;;;;;;;8.33;8.33;;;;;44.54;16.28;100579.44;144160;659;132905;-82
2021/06/26 09:59:34;;;;;;;;;3.67;3.67;;;;;44.43;14.42;100581.59;144177;702;132008;-84
2021/06/26 10:02:04;;;;;;;;;5.33;5.33;;;;;44.34;15.43;100580.06;144155;639;132010;-74
2021/06/26 10:04:37;;;;;;;;;9.00;8.67;;;;;44.37;15.45;100579.19;144187;564;132010;-80
2021/06/26 10:07:07;;;;;;;;;9.00;7.67;;;;;44.35;15.34;100575.97;144164;627;132010;-83
2021/06/26 10:09:43;;;;;;;;;13.00;11.00;;;;;44.47;14.69;100579.50;144178;633;131020;-78
2021/06/26 10:12:19;;;;;;;;;8.00;7.33;;;;;44.67;14.90;100573.97;144168;599;132012;-82
2021/06/26 10:14:50;;;;;;;;;7.00;5.67;;;;;44.72;14.27;100564.94;144183;711;131020;-80
2021/06/26 10:17:21;;;;;;;;;8.67;8.67;;;;;44.62;13.28;100571.63;144162;606;132020;-89
2021/06/26 10:19:52;;;;;;;;;7.33;7.33;;;;;44.56;14.17;100565.56;144154;582;131021;-76
2021/06/26 10:22:23;;;;;;;;;7.67;6.33;;;;;44.67;12.86;100557.66;144161;591;131021;-78
2021/06/26 10:24:56;;;;;;;;;8.67;8.33;;;;;44.75;14.48;100546.16;144181;569;132008;-80
2021/06/26 10:27:27;;;;;;;;;6.67;6.00;;;;;44.86;13.24;100552.53;144156;570;132012;-80
2021/06/26 10:29:57;;;;;;;;;10.00;9.33;;;;;44.92;14.25;100553.66;144180;564;132008;-82
2021/06/26 10:32:27;;;;;;;;;4.67;4.67;;;;;45.12;12.21;100549.31;144161;569;132010;-82
2021/06/26 10:34:58;;;;;;;;;4.33;4.00;;;;;45.22;10.51;100540.59;144177;639;132010;-75
2021/06/26 10:37:28;;;;;;;;;4.00;3.33;;;;;45.47;9.94;100545.09;144172;726;132012;-82
2021/06/26 10:40:07;;;;;;;;;5.00;3.00;;;;;45.67;9.85;100544.34;144183;575;131045;-76
2021/06/26 10:42:39;;;;;;;;;3.33;2.00;;;;;45.79;8.96;100535.19;144160;580;131905;-77
2021/06/26 10:45:26;;;;;;;;;2.00;2.00;;;;;45.75;11.41;100548.72;144170;597;131010;-75
2021/06/26 10:47:57;;;;;;;;;4.00;3.33;;;;;45.83;10.19;100542.88;144167;577;131905;-79
2021/06/26 10:50:27;;;;;;;;;5.00;4.00;;;;;45.92;9.86;100535.34;144188;697;131021;-88
2021/06/26 10:52:59;;;;;;;;;7.33;6.00;;;;;46.10;11.58;100539.91;144162;599;132018;-90
2021/06/26 10:55:34;;;;;;;;;7.33;6.67;;;;;46.11;11.11;100541.53;144185;568;131027;-93
2021/06/26 10:58:06;;;;;;;;;6.00;3.67;;;;;46.18;10.99;100538.53;144164;575;132905;-89
2021/06/26 11:00:39;;;;;;;;;10.00;6.67;;;;;46.21;11.01;100543.38;144176;603;132006;-82
2021/06/26 11:03:34;;;;;;;;;8.67;7.67;;;;;46.13;11.78;100538.19;144171;648;132905;-75
2021/06/26 11:06:19;;;;;;;;;7.00;6.33;;;;;45.91;12.07;100530.06;144182;570;132008;-80
2021/06/26 11:09:04;;;;;;;;;8.33;8.33;;;;;45.89;12.02;100530.50;144151;564;132905;-86
2021/06/26 11:11:42;;;;;;;;;2.67;2.00;;;;;45.72;11.49;100523.06;144163;579;132008;-81
2021/06/26 11:14:19;;;;;;;;;5.67;5.00;;;;;45.69;11.37;100536.16;144163;633;131904;-78
2021/06/26 11:16:52;;;;;;;;;9.33;9.33;;;;;45.70;11.93;100528.41;144177;615;132008;-87
2021/06/26 11:19:33;;;;;;;;;4.00;4.00;;;;;45.68;12.04;100523.09;144164;662;132905;-80
2021/06/26 11:22:04;;;;;;;;;7.33;7.00;;;;;45.62;11.67;100533.44;144180;597;132010;-82
2021/06/26 11:24:46;;;;;;;;;7.33;7.00;;;;;45.51;11.88;100537.28;144163;563;132905;-81
2021/06/26 11:27:21;;;;;;;;;12.33;10.00;;;;;45.09;12.72;100525.31;144175;591;131021;-77